createdAt,value
2023-03-22T00:00:20.732Z,14.43
2023-03-22T00:03:11.651Z,14.45
2023-03-22T00:05:43.739Z,14.40
2023-03-22T00:08:15.248Z,14.41
2023-03-22T00:10:47.717Z,14.44
2023-03-22T00:13:17.077Z,14.48
2023-03-22T00:15:48.505Z,14.54
2023-03-22T00:18:20.728Z,14.58
2023-03-22T00:20:55.699Z,14.58
2023-03-22T00:26:41.408Z,14.60
2023-03-22T00:29:11.140Z,14.62
2023-03-22T00:31:41.377Z,14.56
2023-03-22T00:34:11.047Z,14.56
2023-03-22T00:36:40.863Z,14.53
2023-03-22T00:39:10.540Z,14.53
2023-03-22T00:41:40.163Z,14.50
2023-03-22T00:44:15.652Z,14.49
2023-03-22T00:46:45.342Z,14.46
2023-03-22T00:49:15.404Z,14.39
2023-03-22T00:51:49.086Z,14.33
2023-03-22T00:54:39.085Z,14.25
2023-03-22T00:57:26.885Z,14.19
2023-03-22T00:59:58.126Z,14.15
2023-03-22T01:02:29.329Z,14.10
2023-03-22T01:04:59.662Z,14.04
2023-03-22T01:07:28.989Z,13.99
2023-03-22T01:09:59.243Z,13.95
2023-03-22T01:12:30.614Z,13.92
2023-03-22T01:15:01.021Z,13.93
2023-03-22T01:17:41.665Z,13.92
2023-03-22T01:20:14.095Z,13.89
2023-03-22T01:22:44.818Z,13.90
2023-03-22T01:25:15.558Z,13.91
2023-03-22T01:27:47.823Z,13.91
2023-03-22T01:30:18.060Z,13.89
2023-03-22T01:32:48.911Z,13.90
2023-03-22T01:35:20.730Z,13.90
2023-03-22T01:37:51.676Z,13.90
2023-03-22T01:40:22.866Z,13.90
2023-03-22T01:42:54.093Z,13.89
2023-03-22T01:45:39.751Z,13.87
2023-03-22T01:48:20.102Z,13.86
2023-03-22T01:50:59.345Z,13.83
2023-03-22T01:53:40.225Z,13.81
2023-03-22T01:56:14.841Z,13.79
2023-03-22T01:58:45.430Z,13.78
2023-03-22T02:01:16.284Z,13.77
2023-03-22T02:03:50.570Z,13.80
2023-03-22T02:06:21.653Z,13.83
2023-03-22T02:08:52.597Z,13.86
2023-03-22T02:11:33.840Z,13.87
2023-03-22T02:14:41.234Z,13.89
2023-03-22T02:17:28.708Z,13.89
2023-03-22T02:20:34.110Z,13.90
2023-03-22T02:23:35.286Z,13.95
2023-03-22T02:26:38.692Z,13.98
2023-03-22T02:29:18.816Z,13.94
2023-03-22T02:32:33.471Z,13.95
2023-03-22T02:35:26.991Z,13.93
2023-03-22T02:38:42.341Z,13.93
2023-03-22T02:41:28.473Z,13.95
2023-03-22T02:44:21.953Z,13.86
2023-03-22T02:47:29.580Z,13.76
2023-03-22T02:50:10.917Z,13.71
2023-03-22T02:52:55.912Z,13.72
2023-03-22T02:55:35.751Z,13.74
2023-03-22T02:58:14.735Z,13.71
2023-03-22T03:00:53.931Z,13.66
2023-03-22T03:03:35.948Z,13.65
2023-03-22T03:06:20.974Z,13.55
2023-03-22T03:09:02.263Z,13.50
2023-03-22T03:11:33.741Z,13.50
2023-03-22T03:14:04.730Z,13.49
2023-03-22T03:16:37.870Z,13.46
2023-03-22T03:19:19.743Z,13.45
2023-03-22T03:22:14.345Z,13.41
2023-03-22T03:24:59.832Z,13.34
2023-03-22T03:27:43.736Z,13.25
2023-03-22T03:30:17.141Z,13.22
2023-03-22T03:32:55.967Z,13.16
2023-03-22T03:35:28.087Z,13.11
2023-03-22T03:38:08.317Z,13.07
2023-03-22T03:40:41.452Z,12.99
2023-03-22T03:43:13.430Z,12.99
2023-03-22T03:45:45.742Z,12.96
2023-03-22T03:48:21.667Z,12.89
2023-03-22T03:50:57.473Z,12.82
2023-03-22T03:53:36.345Z,12.76
2023-03-22T03:56:14.775Z,12.77
2023-03-22T03:58:49.541Z,12.80
2023-03-22T04:01:21.303Z,12.78
2023-03-22T04:03:55.108Z,12.76
2023-03-22T04:06:38.965Z,12.75
2023-03-22T04:09:10.086Z,12.71
2023-03-22T04:11:40.723Z,12.67
2023-03-22T04:14:23.708Z,12.67
2023-03-22T04:16:55.701Z,12.67
2023-03-22T04:19:26.557Z,12.66
2023-03-22T04:21:59.747Z,12.70
2023-03-22T04:24:33.893Z,12.76
2023-03-22T04:27:03.588Z,12.81
2023-03-22T04:29:35.722Z,12.83
2023-03-22T04:32:06.424Z,12.85
2023-03-22T04:34:41.001Z,12.86
2023-03-22T04:37:23.052Z,12.82
2023-03-22T04:39:53.865Z,12.78
2023-03-22T04:42:24.313Z,12.77
2023-03-22T04:45:14.694Z,12.76
2023-03-22T04:47:45.309Z,12.72
2023-03-22T04:50:18.470Z,12.69
2023-03-22T04:52:54.319Z,12.68
2023-03-22T04:55:24.637Z,12.61
2023-03-22T04:57:56.257Z,12.60
2023-03-22T05:00:39.894Z,12.62
2023-03-22T05:03:23.162Z,12.67
2023-03-22T05:06:07.313Z,12.72
2023-03-22T05:09:17.988Z,12.78
2023-03-22T05:11:53.934Z,12.78
2023-03-22T05:14:24.533Z,12.80
2023-03-22T05:17:09.655Z,12.81
2023-03-22T05:20:08.624Z,12.84
2023-03-22T05:22:53.392Z,12.87
2023-03-22T05:25:26.206Z,12.91
2023-03-22T05:28:01.834Z,12.96
2023-03-22T05:30:38.706Z,13.01
2023-03-22T05:34:23.783Z,13.06
2023-03-22T05:37:01.164Z,13.09
2023-03-22T05:39:30.981Z,13.09
2023-03-22T05:42:01.000Z,13.09
2023-03-22T05:44:33.090Z,13.09
2023-03-22T05:47:08.678Z,13.09
2023-03-22T05:49:44.778Z,13.11
2023-03-22T05:52:20.400Z,13.09
2023-03-22T05:54:50.664Z,13.09
2023-03-22T05:57:22.799Z,13.10
2023-03-22T06:00:01.251Z,13.11
2023-03-22T06:02:30.937Z,13.17
2023-03-22T06:05:13.162Z,13.23
2023-03-22T06:07:43.246Z,13.23
2023-03-22T06:10:16.177Z,13.22
2023-03-22T06:15:50.370Z,13.29
2023-03-22T06:18:43.117Z,13.23
2023-03-22T06:21:20.614Z,13.22
2023-03-22T06:23:50.620Z,13.25
2023-03-22T06:26:24.180Z,13.26
2023-03-22T06:28:57.630Z,13.22
2023-03-22T06:31:30.947Z,13.29
2023-03-22T06:34:22.266Z,13.32
2023-03-22T06:36:54.242Z,13.37
2023-03-22T06:39:26.109Z,13.51
2023-03-22T06:41:58.310Z,13.62
2023-03-22T06:44:36.081Z,13.72
2023-03-22T06:47:09.220Z,13.86
2023-03-22T06:49:42.264Z,13.96
2023-03-22T06:52:17.519Z,14.04
2023-03-22T06:55:05.313Z,14.09
2023-03-22T06:57:43.663Z,14.15
2023-03-22T07:00:36.147Z,14.19
2023-03-22T07:03:05.849Z,14.26
2023-03-22T07:05:35.735Z,14.33
2023-03-22T07:08:05.199Z,14.37
2023-03-22T07:10:34.746Z,14.42
2023-03-22T07:13:04.152Z,14.56
2023-03-22T07:15:34.727Z,14.64
2023-03-22T07:18:04.385Z,14.70
2023-03-22T07:20:36.529Z,14.79
2023-03-22T07:23:08.652Z,14.88
2023-03-22T07:25:41.437Z,14.93
2023-03-22T07:28:14.202Z,14.95
2023-03-22T07:30:45.351Z,15.02
2023-03-22T07:33:15.464Z,15.01
2023-03-22T07:35:46.170Z,15.03
2023-03-22T07:41:06.294Z,15.04
2023-03-22T07:43:52.448Z,15.02
2023-03-22T07:46:27.573Z,14.99
2023-03-22T07:48:57.217Z,14.95
2023-03-22T07:51:29.980Z,14.94
2023-03-22T07:54:03.299Z,15.00
2023-03-22T07:56:33.286Z,15.03
2023-03-22T07:59:03.759Z,15.05
2023-03-22T08:01:34.704Z,15.11
2023-03-22T08:04:05.226Z,15.13
2023-03-22T08:06:44.169Z,15.19
2023-03-22T08:09:22.621Z,15.22
2023-03-22T08:12:11.410Z,15.26
2023-03-22T08:14:46.769Z,15.32
2023-03-22T08:17:18.097Z,15.29
2023-03-22T08:19:47.937Z,15.27
2023-03-22T08:22:18.490Z,15.25
2023-03-22T08:24:48.396Z,15.23
2023-03-22T08:27:19.327Z,15.24
2023-03-22T08:29:53.546Z,15.25
2023-03-22T08:32:23.321Z,15.23
2023-03-22T08:34:53.054Z,15.22
2023-03-22T08:37:22.846Z,15.22
2023-03-22T08:39:53.918Z,15.19
2023-03-22T08:42:24.442Z,15.22
2023-03-22T08:44:54.561Z,15.29
2023-03-22T08:47:24.945Z,15.31
2023-03-22T08:49:55.224Z,15.35
2023-03-22T08:52:25.131Z,15.38
2023-03-22T08:54:55.891Z,15.40
2023-03-22T08:57:27.156Z,15.43
2023-03-22T08:59:57.605Z,15.56
2023-03-22T09:02:27.971Z,15.70
2023-03-22T09:04:58.596Z,15.80
2023-03-22T09:07:29.186Z,15.87
2023-03-22T09:10:00.022Z,15.85
2023-03-22T09:12:29.897Z,15.76
2023-03-22T09:15:00.146Z,15.64
2023-03-22T09:17:30.343Z,15.52
2023-03-22T09:20:13.114Z,15.37
2023-03-22T09:22:44.999Z,15.29
2023-03-22T09:25:14.952Z,15.24
2023-03-22T09:27:45.622Z,15.26
2023-03-22T09:30:17.551Z,15.24
2023-03-22T09:32:48.192Z,15.09
2023-03-22T09:35:18.270Z,14.99
2023-03-22T09:37:48.888Z,14.90
2023-03-22T09:40:19.651Z,14.87
2023-03-22T09:42:54.707Z,14.86
2023-03-22T09:45:37.611Z,14.86
2023-03-22T09:48:18.617Z,14.87
2023-03-22T09:50:54.753Z,14.85
2023-03-22T09:53:29.144Z,14.85
2023-03-22T09:56:18.251Z,14.84
2023-03-22T09:58:57.845Z,14.84
2023-03-22T10:01:39.589Z,14.88
2023-03-22T10:04:42.830Z,14.91
2023-03-22T10:07:27.392Z,14.95
2023-03-22T10:10:08.269Z,14.98
2023-03-22T10:12:48.345Z,15.02
2023-03-22T10:15:28.845Z,15.00
2023-03-22T10:18:01.425Z,14.99
2023-03-22T10:20:43.301Z,15.02
2023-03-22T10:23:32.111Z,15.03
2023-03-22T10:26:05.066Z,15.02
2023-03-22T10:28:40.049Z,15.06
2023-03-22T10:31:19.733Z,15.12
2023-03-22T10:34:06.521Z,15.19
2023-03-22T10:36:45.014Z,15.18
2023-03-22T10:39:27.935Z,15.17
2023-03-22T10:42:02.387Z,15.18
2023-03-22T10:44:40.201Z,15.16
2023-03-22T10:47:11.625Z,15.19
2023-03-22T10:49:54.455Z,15.24
2023-03-22T10:52:41.307Z,15.26
2023-03-22T10:55:17.300Z,15.30
2023-03-22T10:58:13.341Z,15.34
2023-03-22T11:00:52.392Z,15.37
2023-03-22T11:03:34.861Z,15.39
2023-03-22T11:06:11.070Z,15.44
2023-03-22T11:08:56.723Z,15.48
2023-03-22T11:11:29.721Z,15.51
2023-03-22T11:14:06.514Z,15.56
2023-03-22T11:16:47.949Z,15.60
2023-03-22T11:19:26.170Z,15.67
2023-03-22T11:21:58.445Z,15.70
2023-03-22T11:24:34.592Z,15.73
2023-03-22T11:27:11.156Z,15.74
2023-03-22T11:29:52.028Z,15.78
2023-03-22T11:32:28.421Z,15.75
2023-03-22T11:35:04.985Z,15.74
2023-03-22T11:37:40.949Z,15.81
2023-03-22T11:40:16.441Z,15.83
2023-03-22T11:42:49.337Z,15.81
2023-03-22T11:45:27.719Z,15.78
2023-03-22T11:48:10.363Z,15.77
2023-03-22T11:50:46.070Z,15.83
2023-03-22T11:53:25.008Z,15.87
2023-03-22T11:56:16.548Z,15.86
2023-03-22T11:59:05.243Z,15.87
2023-03-22T12:02:13.162Z,15.91
2023-03-22T12:07:56.801Z,15.99
2023-03-22T12:10:32.074Z,16.17
2023-03-22T12:13:11.200Z,16.31
2023-03-22T12:15:48.437Z,16.40
2023-03-22T12:18:28.982Z,16.52
2023-03-22T12:21:01.618Z,16.62
2023-03-22T12:23:36.903Z,16.65
2023-03-22T12:26:14.463Z,16.70
2023-03-22T12:28:56.438Z,16.72
2023-03-22T12:31:33.873Z,16.73
2023-03-22T12:34:25.776Z,16.71
2023-03-22T12:36:59.889Z,16.64
2023-03-22T12:39:41.338Z,16.55
2023-03-22T12:42:21.905Z,16.52
2023-03-22T12:45:05.204Z,16.47
2023-03-22T12:47:50.867Z,16.51
2023-03-22T12:50:31.751Z,16.55
2023-03-22T12:53:04.049Z,16.55
2023-03-22T12:55:38.242Z,16.53
2023-03-22T12:58:10.343Z,16.63
2023-03-22T13:00:54.590Z,16.67
2023-03-22T13:03:49.305Z,16.68
2023-03-22T13:06:55.556Z,16.70
2023-03-22T13:09:49.053Z,16.74
2023-03-22T13:12:34.618Z,16.80
2023-03-22T13:15:41.838Z,16.79
2023-03-22T13:18:38.307Z,16.80
2023-03-22T13:21:19.447Z,16.79
2023-03-22T13:24:04.880Z,16.83
2023-03-22T13:26:42.325Z,16.86
2023-03-22T13:29:25.233Z,16.81
2023-03-22T13:32:00.185Z,16.82
2023-03-22T13:34:39.735Z,16.83
2023-03-22T13:37:30.051Z,16.88
2023-03-22T13:40:04.435Z,16.93
2023-03-22T13:42:38.997Z,16.98
2023-03-22T13:45:41.623Z,17.00
2023-03-22T13:48:36.062Z,16.96
2023-03-22T13:51:16.130Z,16.91
2023-03-22T13:54:02.289Z,16.91
2023-03-22T13:56:59.889Z,16.93
2023-03-22T14:00:09.442Z,16.84
2023-03-22T14:02:43.094Z,16.74
2023-03-22T14:05:27.233Z,16.68
2023-03-22T14:08:02.396Z,16.60
2023-03-22T14:10:47.887Z,16.57
2023-03-22T14:13:32.115Z,16.43
2023-03-22T14:16:19.536Z,16.35
2023-03-22T14:18:54.282Z,16.26
2023-03-22T14:21:31.488Z,16.18
